Yachats, OR

10:23 AM PDT on August 30, 2014 (GMT -0700)
Stormwatcher's Retreat | Change Station
CLOSE
Current Station
Personal Weather Station
Location: Yachats, OR
Elevation: 26 ft
Nearby Weather Stations

Elev 26 ft 44.31 °N, 124.11 °W | Updated 3 minutes ago

Overcast
Overcast
59.2 °F
Feels Like 59.2 °F
N
11.0
Wind Variable Wind from SSW
Gusts 14.0 mph

Today
High -- | Low -- °F
--% Chance of Precip.
Yesterday
High -- | Low -- °F
Precip. -- in
6:37 AM 7:55 PM
Waxing Crescent, 23% visible
Pressure 30.00 in
Visibility 10.0 miles
Clouds Scattered Clouds 300 ft
Overcast 700 ft
Dew Point 58 °F
Humidity 96%
Rainfall 0.07 in
Snow Depth Not available.
UV 1.7 out of 12
Pollen 3.00 out of 12
Air Quality Not available.
Flu Activity Not available.
METAR KONP 301715Z AUTO 20015G19KT 10SM SCT003 OVC007 16/15 A3000 RMK AO2

More Conditions Fewer Conditions

Pressure 30.00 in
Visibility 10.0 miles
Clouds Scattered Clouds 300 ft
Overcast 700 ft
Dew Point 58 °F
Humidity 96%
Rainfall 0.07 in
Snow Depth Not available.
UV 1.7 out of 12
Pollen 3.00 out of 12
Air Quality Not available.
Flu Activity Not available.
METAR KONP 301715Z AUTO 20015G19KT 10SM SCT003 OVC007 16/15 A3000 RMK AO2

More Conditions Fewer Conditions

10-Day Weather Forecast

Almanac

Astronomy

Aug. 30, 2014 Rise Set
Actual Time 6:37 AM PDT 7:55 PM PDT
Civil Twilight 6:06 AM PDT 8:25 PM PDT
Nautical Twilight 5:30 AM PDT 9:02 PM PDT
Astronomical Twilight 4:52 AM PDT 9:40 PM PDT
Moon 11:42 AM PDT 10:20 PM PDT
Length of Visible Light 14h 19m
Length of Day
13h 18m
Tomorrow will be 2m 57s shorter.
Waxing Crescent, 23% of the Moon is Illuminated
Today
Waxing Crescent
Sep 2
First Quarter
Sep 8
Full
Sep 15
Last Quarter
Sep 24
New

Today's Extremes

State Highs State Lows

Community

WunderPhotos

Upload Photos

1,748,578 photos uploaded!

WunderBlogs® & News

Nearby

Snow Depth

Station Depth Elevation
Holland Meadows 0 in 4900 ft
Seine Creek 0 in 2000 ft
Daly Lake 0 in 3600 ft
Roaring River 0 in 4900 ft
Santiam Junction 0 in 3750 ft

Earthquake Activity

City Distance Mag. Time & Date
No recent earthquake activity has been reported nearby.
Minimum magnitude displayed is 2.5.

Coastal Water Temperatures

Place Temperature
South Beach, OR 55.0 °F
Charleston, OR 55.0 °F

Nearby Weather Stations